Time;durP1;ratioP1;P1;durP2;ratioP2;P2;SDS_P1;SDS_P2;PMS_P1;PMS_P2;Temp;Humidity;BMP_temperature;BMP_pressure;BME280_temperature;BME280_humidity;BME280_pressure;Samples;Min_cycle;Max_cycle;Signal;HPM_P1;HPM_P2
2023/03/11 00:00:17;;;;;;;10.88;1.75;;;4.60;60.00;;;;;;4982614;28;20065;-85
2023/03/11 00:02:46;;;;;;;7.72;1.63;;;4.70;60.00;;;;;;4981624;28;20077;-85
2023/03/11 00:05:16;;;;;;;15.07;2.20;;;4.60;59.80;;;;;;4985541;28;20073;-85
2023/03/11 00:07:43;;;;;;;10.35;1.98;;;4.60;59.80;;;;;;4985998;28;20073;-86
2023/03/11 00:10:14;;;;;;;13.13;2.03;;;4.70;59.70;;;;;;4986769;28;20064;-85
2023/03/11 00:12:43;;;;;;;12.85;2.90;;;4.70;59.70;;;;;;4985312;28;20670;-87
2023/03/11 00:15:11;;;;;;;15.23;2.25;;;4.70;59.40;;;;;;4986907;28;20058;-85
2023/03/11 00:17:39;;;;;;;20.42;2.60;;;4.70;59.40;;;;;;4986101;28;20399;-85
2023/03/11 00:20:09;;;;;;;10.85;2.22;;;4.70;59.10;;;;;;4986155;28;20065;-85
2023/03/11 00:22:36;;;;;;;12.02;2.47;;;4.70;59.10;;;;;;4990870;28;20503;-86
2023/03/11 00:25:04;;;;;;;19.33;3.10;;;4.70;59.20;;;;;;4986712;28;20521;-89
2023/03/11 00:27:31;;;;;;;14.77;2.20;;;4.70;59.00;;;;;;4984747;28;20050;-85
2023/03/11 00:29:59;;;;;;;13.23;2.10;;;4.70;59.00;;;;;;4986722;28;20058;-85
2023/03/11 00:32:27;;;;;;;11.57;2.30;;;4.70;59.10;;;;;;4986844;28;20054;-86
2023/03/11 00:34:54;;;;;;;9.23;2.20;;;4.70;58.80;;;;;;4985355;28;20057;-86
2023/03/11 00:37:21;;;;;;;15.90;2.25;;;4.80;58.90;;;;;;4986054;28;20386;-85
2023/03/11 00:39:48;;;;;;;16.63;3.00;;;4.80;58.70;;;;;;4985262;28;20523;-85
2023/03/11 00:42:16;;;;;;;18.17;2.30;;;4.80;58.20;;;;;;4983808;28;20058;-85
2023/03/11 00:44:43;;;;;;;16.73;2.22;;;4.80;58.10;;;;;;4984967;28;20054;-85
2023/03/11 00:47:12;;;;;;;10.57;1.88;;;4.80;58.40;;;;;;4991569;28;20080;-87
2023/03/11 00:49:39;;;;;;;13.27;2.30;;;4.80;58.30;;;;;;4986957;28;20046;-88
2023/03/11 00:52:07;;;;;;;14.48;2.38;;;4.80;58.40;;;;;;4985595;28;20066;-85
2023/03/11 00:54:34;;;;;;;9.73;2.17;;;4.80;58.40;;;;;;4985372;28;20422;-88
2023/03/11 00:57:02;;;;;;;12.30;2.42;;;4.80;58.40;;;;;;4984252;28;20050;-87
2023/03/11 00:59:29;;;;;;;7.57;1.73;;;4.80;58.30;;;;;;4985721;28;20445;-86
2023/03/11 01:01:56;;;;;;;10.38;2.25;;;4.80;58.70;;;;;;4991066;28;20486;-87
2023/03/11 01:04:25;;;;;;;10.15;2.20;;;4.90;58.30;;;;;;4985474;28;20062;-86
2023/03/11 01:06:52;;;;;;;15.23;2.20;;;4.90;58.40;;;;;;4985729;28;20130;-87
2023/03/11 01:09:19;;;;;;;11.48;2.33;;;4.90;58.40;;;;;;4985077;28;20494;-87
2023/03/11 01:11:47;;;;;;;9.48;2.22;;;4.90;58.50;;;;;;4984098;28;20119;-86
2023/03/11 01:14:14;;;;;;;10.68;2.33;;;4.80;58.40;;;;;;4985387;28;20061;-87
2023/03/11 01:16:41;;;;;;;11.10;2.42;;;4.80;58.50;;;;;;4984243;28;20054;-87
2023/03/11 01:19:08;;;;;;;12.38;2.10;;;4.80;58.60;;;;;;4992469;28;20417;-85
2023/03/11 01:21:37;;;;;;;12.07;2.03;;;4.80;58.60;;;;;;4985270;28;20084;-85
2023/03/11 01:24:05;;;;;;;23.63;2.97;;;4.80;58.70;;;;;;4987599;28;20058;-89
2023/03/11 01:26:32;;;;;;;10.32;2.17;;;4.80;58.60;;;;;;4989141;28;20050;-86
2023/03/11 01:28:59;;;;;;;7.50;1.90;;;4.80;58.30;;;;;;4985159;28;20058;-86
2023/03/11 01:31:27;;;;;;;13.70;2.40;;;4.80;58.20;;;;;;4985170;28;20069;-86
2023/03/11 01:33:54;;;;;;;9.65;2.03;;;4.80;58.20;;;;;;4985189;28;20049;-86
2023/03/11 01:36:21;;;;;;;6.65;1.90;;;4.80;58.60;;;;;;4984508;28;20065;-87
2023/03/11 01:38:50;;;;;;;11.23;2.17;;;4.80;58.20;;;;;;4986547;28;20057;-88
2023/03/11 01:41:17;;;;;;;13.52;2.22;;;4.80;58.20;;;;;;4982822;28;20062;-85
2023/03/11 01:43:53;;;;;;;14.52;2.92;;;4.80;58.20;;;;;;4990886;28;20521;-85
2023/03/11 01:46:22;;;;;;;13.40;2.40;;;4.90;58.10;;;;;;4985007;28;20054;-85
2023/03/11 01:48:52;;;;;;;21.35;2.42;;;4.80;58.00;;;;;;4983736;28;20061;-89
2023/03/11 01:51:26;;;;;;;14.25;2.00;;;4.80;58.00;;;;;;4983932;28;20054;-85
2023/03/11 01:53:56;;;;;;;13.90;2.38;;;4.80;58.10;;;;;;4983959;28;20057;-85
2023/03/11 01:56:25;;;;;;;15.15;2.28;;;4.80;58.10;;;;;;4982919;28;20069;-86
2023/03/11 01:58:54;;;;;;;14.65;2.30;;;4.80;57.90;;;;;;4983487;28;20077;-87
2023/03/11 02:01:22;;;;;;;11.85;2.95;;;4.80;58.00;;;;;;4975338;23;20059;-56
2023/03/11 02:03:49;;;;;;;16.60;2.60;;;4.80;58.00;;;;;;4945358;28;20055;-54
2023/03/11 02:06:20;;;;;;;12.65;3.08;;;4.80;58.10;;;;;;4943758;28;20431;-53
2023/03/11 02:08:48;;;;;;;12.77;2.42;;;4.80;58.10;;;;;;4944945;28;20055;-55
2023/03/11 02:11:22;;;;;;;9.77;2.10;;;4.80;58.20;;;;;;4944946;28;20070;-56
2023/03/11 02:13:51;;;;;;;12.20;2.72;;;4.80;58.30;;;;;;4946613;28;20490;-55
2023/03/11 02:16:18;;;;;;;18.48;3.00;;;4.80;58.10;;;;;;4947381;28;20844;-54
2023/03/11 02:18:46;;;;;;;8.40;2.03;;;4.80;58.00;;;;;;4944973;28;20058;-52
2023/03/11 02:21:23;;;;;;;12.70;3.13;;;4.80;58.00;;;;;;4944273;28;20055;-54
2023/03/11 02:23:57;;;;;;;13.05;2.28;;;4.80;57.90;;;;;;4946090;28;20062;-54
2023/03/11 02:26:30;;;;;;;;;;;4.80;57.80;;;;;;4944656;28;20059;-56
2023/03/11 02:29:00;;;;;;;19.75;2.20;;;4.90;57.90;;;;;;4946420;28;19937;-55
2023/03/11 02:31:29;;;;;;;17.95;3.08;;;4.90;57.70;;;;;;4947147;28;20074;-55
2023/03/11 02:33:59;;;;;;;10.75;2.13;;;4.90;57.40;;;;;;4940135;28;20058;-56
2023/03/11 02:36:38;;;;;;;18.38;3.20;;;4.90;57.40;;;;;;4945612;28;20415;-54
2023/03/11 02:39:07;;;;;;;8.93;1.83;;;4.90;57.20;;;;;;4947183;28;20059;-55
2023/03/11 02:41:37;;;;;;;12.13;1.95;;;4.90;57.20;;;;;;4944805;28;20495;-54
2023/03/11 02:44:07;;;;;;;19.92;2.60;;;4.80;57.30;;;;;;4945172;28;20055;-55
2023/03/11 02:46:35;;;;;;;16.15;2.38;;;4.90;57.40;;;;;;4945928;28;20054;-55
2023/03/11 02:49:03;;;;;;;8.75;2.05;;;4.90;57.50;;;;;;4945037;28;20062;-54
2023/03/11 02:51:30;;;;;;;11.57;1.92;;;4.90;57.50;;;;;;4945885;28;20054;-55
2023/03/11 02:54:01;;;;;;;8.68;1.50;;;4.90;57.50;;;;;;4944853;28;20066;-54
2023/03/11 02:56:28;;;;;;;10.65;2.25;;;4.90;57.50;;;;;;4944269;28;20062;-55
2023/03/11 02:58:55;;;;;;;18.10;2.25;;;5.00;57.50;;;;;;4944927;28;20047;-54
2023/03/11 03:01:24;;;;;;;9.02;2.00;;;5.00;57.30;;;;;;4945853;28;20062;-55
2023/03/11 03:03:51;;;;;;;12.90;2.08;;;5.00;57.20;;;;;;4945325;28;20411;-56
2023/03/11 03:06:19;;;;;;;10.23;1.55;;;5.00;57.10;;;;;;4944121;28;20055;-56
2023/03/11 03:08:46;;;;;;;10.90;2.03;;;5.10;57.00;;;;;;4945262;28;20050;-56
2023/03/11 03:11:13;;;;;;;11.63;2.10;;;5.10;56.90;;;;;;4944045;28;20055;-56
2023/03/11 03:13:40;;;;;;;10.25;1.85;;;5.10;56.50;;;;;;4945800;28;20503;-55
2023/03/11 03:16:08;;;;;;;21.60;2.03;;;5.10;56.40;;;;;;4945729;28;20067;-54
2023/03/11 03:18:37;;;;;;;10.02;1.67;;;5.10;56.20;;;;;;4945106;28;20407;-56
2023/03/11 03:21:04;;;;;;;13.18;2.10;;;5.20;56.20;;;;;;4944760;28;20055;-56
2023/03/11 03:23:34;;;;;;;14.07;1.92;;;5.20;56.00;;;;;;4944726;28;20055;-56
2023/03/11 03:26:01;;;;;;;8.18;2.22;;;5.20;55.90;;;;;;4943934;28;20479;-56
2023/03/11 03:28:29;;;;;;;10.73;1.67;;;5.20;55.70;;;;;;4944694;28;20519;-56
2023/03/11 03:30:56;;;;;;;9.85;1.75;;;5.20;55.50;;;;;;4944783;28;20059;-56
2023/03/11 03:33:23;;;;;;;14.57;2.30;;;5.20;55.60;;;;;;4944338;28;20522;-55
2023/03/11 03:35:52;;;;;;;9.25;2.00;;;5.20;55.40;;;;;;4945637;28;20047;-55
2023/03/11 03:38:19;;;;;;;8.90;2.17;;;5.10;55.20;;;;;;4945098;28;20063;-56
2023/03/11 03:40:47;;;;;;;15.70;2.28;;;5.10;55.20;;;;;;4943789;28;20078;-54
2023/03/11 03:43:15;;;;;;;11.52;1.77;;;5.10;55.40;;;;;;4944606;28;20055;-54
2023/03/11 03:45:42;;;;;;;15.20;1.80;;;5.10;54.90;;;;;;4944394;28;20050;-55
2023/03/11 03:48:09;;;;;;;22.23;2.50;;;5.10;55.00;;;;;;4943358;28;20066;-54
2023/03/11 03:50:36;;;;;;;6.85;1.58;;;5.10;55.00;;;;;;4945978;28;20082;-52
2023/03/11 03:53:05;;;;;;;6.90;1.83;;;5.00;54.90;;;;;;4944131;28;20143;-50
2023/03/11 03:55:32;;;;;;;10.55;1.75;;;5.00;55.00;;;;;;4944907;28;20058;-53
2023/03/11 03:57:59;;;;;;;9.68;1.98;;;5.10;55.00;;;;;;4943132;28;20059;-50
2023/03/11 04:00:26;;;;;;;9.98;2.15;;;5.10;54.90;;;;;;4943698;28;20047;-50
2023/03/11 04:02:54;;;;;;;7.95;1.55;;;5.00;54.80;;;;;;4944087;28;20059;-49
2023/03/11 04:05:21;;;;;;;10.90;1.90;;;5.00;54.80;;;;;;4944412;28;20392;-50
2023/03/11 04:07:48;;;;;;;10.18;1.58;;;5.10;54.80;;;;;;4944382;28;20051;-48
2023/03/11 04:10:17;;;;;;;14.02;1.67;;;5.00;54.70;;;;;;4945416;28;20057;-52
2023/03/11 04:12:44;;;;;;;9.60;1.60;;;5.00;54.80;;;;;;4944494;28;20047;-51
2023/03/11 04:15:12;;;;;;;16.60;2.25;;;5.00;54.80;;;;;;4945078;28;20062;-52
2023/03/11 04:17:39;;;;;;;8.82;1.60;;;5.00;54.70;;;;;;4943267;28;20434;-54
2023/03/11 04:20:08;;;;;;;13.48;1.73;;;5.00;54.50;;;;;;4944298;28;20047;-52
2023/03/11 04:22:35;;;;;;;8.20;1.75;;;5.00;54.40;;;;;;4944812;28;20055;-49
2023/03/11 04:25:03;;;;;;;15.43;2.17;;;5.00;54.40;;;;;;4944903;28;20167;-56
2023/03/11 04:27:31;;;;;;;11.85;1.85;;;5.00;54.50;;;;;;4941679;28;20059;-52
2023/03/11 04:29:58;;;;;;;8.38;1.70;;;5.00;54.50;;;;;;4945750;28;20427;-52
2023/03/11 04:32:26;;;;;;;10.23;2.03;;;5.00;54.40;;;;;;4944702;28;20590;-51
2023/03/11 04:34:53;;;;;;;8.07;1.70;;;5.00;54.40;;;;;;4943832;28;20055;-51
2023/03/11 04:37:21;;;;;;;13.18;1.58;;;4.90;54.30;;;;;;4943198;28;20059;-50
2023/03/11 04:39:52;;;;;;;8.85;1.75;;;4.90;54.20;;;;;;4943197;28;20066;-49
2023/03/11 04:42:19;;;;;;;7.90;1.77;;;4.90;54.20;;;;;;4942952;28;20487;-49
2023/03/11 04:44:48;;;;;;;14.48;1.90;;;4.90;54.10;;;;;;4944017;28;20059;-52
2023/03/11 04:47:15;;;;;;;11.43;2.15;;;4.90;54.00;;;;;;4943728;28;20612;-49
2023/03/11 04:49:42;;;;;;;12.70;1.67;;;4.90;54.00;;;;;;4945581;28;20059;-50
2023/03/11 04:52:09;;;;;;;8.23;1.70;;;4.80;54.00;;;;;;4947427;28;20059;-55
2023/03/11 04:54:37;;;;;;;10.68;1.42;;;4.80;54.00;;;;;;4947593;28;20066;-50
2023/03/11 04:57:04;;;;;;;10.23;2.17;;;4.80;54.00;;;;;;4945244;28;20054;-50
2023/03/11 04:59:31;;;;;;;11.23;1.73;;;4.80;53.90;;;;;;4947992;28;21746;-53
2023/03/11 05:02:00;;;;;;;10.38;1.40;;;4.70;53.80;;;;;;4948800;28;20063;-53
2023/03/11 05:04:27;;;;;;;10.18;1.65;;;4.70;53.80;;;;;;4949330;28;20059;-50
2023/03/11 05:06:54;;;;;;;8.60;1.60;;;4.70;53.80;;;;;;4947162;28;20988;-50
2023/03/11 05:09:22;;;;;;;7.45;1.50;;;4.70;53.80;;;;;;4945461;28;20062;-50
2023/03/11 05:11:50;;;;;;;7.82;1.70;;;4.60;53.80;;;;;;4944841;28;20062;-51
2023/03/11 05:14:17;;;;;;;10.63;2.00;;;4.60;53.70;;;;;;4947349;28;20055;-55
2023/03/11 05:16:45;;;;;;;6.65;1.65;;;4.60;54.20;;;;;;4946533;28;20055;-54
2023/03/11 05:21:58;;;;;;;15.40;2.13;;;4.60;53.80;;;;;;4948809;28;20052;-52
2023/03/11 05:24:25;;;;;;;8.13;1.83;;;4.50;54.30;;;;;;4946002;28;20055;-51
2023/03/11 05:26:52;;;;;;;7.85;1.60;;;4.50;53.80;;;;;;4945435;28;20058;-52
2023/03/11 05:29:20;;;;;;;14.65;2.72;;;4.50;53.80;;;;;;4945730;28;20058;-51
2023/03/11 05:31:53;;;;;;;12.23;2.05;;;4.50;53.80;;;;;;4946250;28;20058;-53
2023/03/11 05:34:22;;;;;;;9.50;1.63;;;4.50;53.80;;;;;;4946086;28;20077;-53
2023/03/11 05:36:53;;;;;;;8.75;1.35;;;4.40;53.80;;;;;;4944775;28;20051;-54
2023/03/11 05:39:20;;;;;;;10.45;1.77;;;4.40;53.80;;;;;;4948063;28;20503;-51
2023/03/11 05:41:47;;;;;;;8.98;1.98;;;4.40;53.80;;;;;;4944478;28;20047;-49
2023/03/11 05:44:14;;;;;;;7.30;1.80;;;4.40;53.80;;;;;;4946690;28;20059;-52
2023/03/11 05:46:42;;;;;;;19.67;2.08;;;4.40;53.80;;;;;;4947080;28;20080;-49
2023/03/11 05:49:09;;;;;;;6.75;1.73;;;4.40;53.80;;;;;;4947008;28;20060;-55
2023/03/11 05:51:37;;;;;;;9.95;1.98;;;4.40;54.40;;;;;;4947732;28;20055;-56
2023/03/11 05:54:10;;;;;;;11.00;1.98;;;4.30;54.40;;;;;;4947403;28;20433;-57
2023/03/11 05:56:37;;;;;;;14.38;1.95;;;4.30;53.90;;;;;;4945728;28;20081;-56
2023/03/11 05:59:04;;;;;;;11.35;1.70;;;4.30;53.90;;;;;;4946335;28;20059;-55
2023/03/11 06:01:32;;;;;;;16.38;2.50;;;4.20;53.80;;;;;;4944104;28;20059;-54
2023/03/11 06:04:00;;;;;;;8.30;2.35;;;4.30;53.80;;;;;;4946454;28;20077;-56
2023/03/11 06:06:27;;;;;;;7.65;1.83;;;4.20;53.80;;;;;;4944647;28;20055;-56
2023/03/11 06:08:56;;;;;;;11.40;1.83;;;4.20;54.00;;;;;;4949095;28;20055;-54
2023/03/11 06:11:24;;;;;;;11.00;1.95;;;4.20;54.10;;;;;;4947376;28;20051;-55
2023/03/11 06:13:53;;;;;;;11.55;1.98;;;4.20;54.20;;;;;;4946973;28;20047;-57
2023/03/11 06:16:20;;;;;;;10.13;1.77;;;4.20;54.20;;;;;;4945251;28;20055;-56
2023/03/11 06:18:48;;;;;;;10.40;2.20;;;4.20;54.20;;;;;;4945675;28;20127;-56
2023/03/11 06:21:18;;;;;;;10.15;2.08;;;4.20;54.80;;;;;;4943570;28;20066;-52
2023/03/11 06:23:45;;;;;;;9.60;2.03;;;4.20;54.30;;;;;;4947142;28;20055;-58
2023/03/11 06:26:15;;;;;;;6.82;1.73;;;4.20;54.30;;;;;;4944682;28;20051;-56
2023/03/11 06:28:43;;;;;;;10.38;1.60;;;4.20;54.30;;;;;;4947551;28;20058;-58
2023/03/11 06:31:14;;;;;;;14.02;2.85;;;4.20;54.30;;;;;;4946198;28;20054;-57
2023/03/11 06:33:41;;;;;;;10.07;2.15;;;4.20;54.40;;;;;;4944535;28;20502;-58
2023/03/11 06:36:11;;;;;;;7.75;2.10;;;4.20;54.40;;;;;;4943819;28;20242;-54
2023/03/11 06:38:38;;;;;;;10.40;1.83;;;4.30;54.50;;;;;;4945910;28;20419;-56
2023/03/11 06:41:06;;;;;;;9.45;1.63;;;4.30;54.50;;;;;;4943523;28;20065;-57
2023/03/11 06:43:35;;;;;;;15.88;2.15;;;4.30;54.50;;;;;;4945000;28;20062;-55
2023/03/11 06:46:09;;;;;;;9.48;1.60;;;4.30;54.40;;;;;;4943788;28;20054;-56
2023/03/11 06:48:36;;;;;;;7.57;2.20;;;4.30;54.50;;;;;;4944893;28;20543;-54
2023/03/11 06:51:04;;;;;;;6.70;1.88;;;4.30;54.50;;;;;;4944984;28;20050;-56
2023/03/11 06:53:31;;;;;;;10.88;1.98;;;4.30;54.40;;;;;;4943271;28;20074;-56
2023/03/11 06:56:00;;;;;;;6.32;1.70;;;4.40;54.50;;;;;;4942653;28;20063;-56
2023/03/11 06:58:27;;;;;;;14.20;2.88;;;4.40;54.50;;;;;;4944378;28;20077;-57
2023/03/11 07:01:00;;;;;;;9.10;2.28;;;4.40;54.50;;;;;;4942679;28;20617;-57
2023/03/11 07:03:28;;;;;;;15.90;2.45;;;4.40;54.30;;;;;;4945784;28;20051;-53
2023/03/11 07:05:55;;;;;;;10.57;2.22;;;4.40;54.30;;;;;;4943116;28;20051;-55
2023/03/11 07:08:23;;;;;;;8.90;2.10;;;4.40;54.30;;;;;;4945910;28;20051;-54
2023/03/11 07:11:01;;;;;;;10.50;2.03;;;4.40;54.30;;;;;;4943755;28;20062;-57
2023/03/11 07:13:28;;;;;;;9.30;2.25;;;4.40;54.40;;;;;;4943812;28;20062;-57
2023/03/11 07:16:05;;;;;;;17.23;2.70;;;4.50;54.50;;;;;;4944970;28;20082;-56
2023/03/11 07:18:33;;;;;;;8.80;2.30;;;4.50;54.20;;;;;;4943819;28;20059;-55
2023/03/11 07:21:01;;;;;;;12.27;2.65;;;4.50;54.20;;;;;;4942070;28;20202;-57
2023/03/11 07:23:28;;;;;;;9.43;2.08;;;4.50;54.20;;;;;;4944858;28;20062;-56
2023/03/11 07:25:56;;;;;;;7.15;1.92;;;4.50;54.20;;;;;;4942740;28;20053;-56
2023/03/11 07:28:23;;;;;;;7.93;2.03;;;4.50;54.40;;;;;;4944947;28;20373;-56
2023/03/11 07:30:51;;;;;;;6.22;1.67;;;4.50;54.50;;;;;;4943371;28;20055;-54
2023/03/11 07:33:21;;;;;;;12.70;2.58;;;4.50;54.60;;;;;;4943779;28;20059;-55
2023/03/11 07:35:48;;;;;;;7.22;1.88;;;4.60;54.70;;;;;;4945503;28;20074;-56
2023/03/11 07:38:16;;;;;;;9.00;2.80;;;4.60;55.30;;;;;;4943297;28;20058;-56
2023/03/11 07:40:44;;;;;;;9.60;2.45;;;4.60;55.30;;;;;;4942217;28;20055;-57
2023/03/11 07:43:11;;;;;;;9.30;2.83;;;4.70;54.70;;;;;;4944009;28;20530;-57
2023/03/11 07:45:38;;;;;;;13.07;2.38;;;4.70;54.50;;;;;;4943309;28;20380;-57
2023/03/11 07:48:06;;;;;;;11.20;2.50;;;4.80;54.50;;;;;;4943532;28;20055;-55
2023/03/11 07:50:36;;;;;;;9.40;1.98;;;4.80;54.50;;;;;;4945003;28;20051;-55
2023/03/11 07:53:03;;;;;;;9.30;2.00;;;4.80;54.40;;;;;;4944529;28;20098;-57
2023/03/11 07:55:30;;;;;;;16.45;2.10;;;4.90;54.30;;;;;;4942559;28;20504;-58
2023/03/11 07:57:57;;;;;;;13.43;2.63;;;4.90;54.10;;;;;;4942705;28;20070;-58
2023/03/11 08:00:25;;;;;;;14.00;2.30;;;4.90;54.00;;;;;;4942484;28;20119;-56
2023/03/11 08:02:52;;;;;;;9.30;2.20;;;4.90;54.00;;;;;;4941599;28;20047;-55
2023/03/11 08:05:19;;;;;;;16.15;3.33;;;4.90;53.90;;;;;;4942269;28;20407;-54
2023/03/11 08:07:48;;;;;;;7.60;2.15;;;4.90;53.90;;;;;;4944054;28;20274;-56
2023/03/11 08:10:15;;;;;;;12.02;3.00;;;4.90;53.80;;;;;;4945115;28;20059;-53
2023/03/11 08:12:42;;;;;;;9.75;2.50;;;5.00;54.00;;;;;;4943604;28;20059;-56
2023/03/11 08:15:10;;;;;;;15.32;3.13;;;5.00;54.00;;;;;;4942621;28;20403;-57
2023/03/11 08:17:38;;;;;;;9.88;2.30;;;5.00;53.90;;;;;;4943950;28;20161;-57
2023/03/11 08:20:07;;;;;;;11.10;2.42;;;5.00;53.90;;;;;;4943723;28;20523;-56
2023/03/11 08:22:34;;;;;;;11.65;2.47;;;5.00;53.90;;;;;;4943659;28;20132;-54
2023/03/11 08:25:03;;;;;;;14.13;3.55;;;5.00;53.80;;;;;;4945508;28;20415;-56
2023/03/11 08:27:30;;;;;;;12.90;2.28;;;5.00;53.70;;;;;;4943097;28;20058;-55
2023/03/11 08:29:58;;;;;;;10.55;2.08;;;5.10;53.80;;;;;;4948421;28;20411;-58
2023/03/11 08:32:26;;;;;;;6.85;2.22;;;5.00;53.50;;;;;;4946403;28;20059;-59
2023/03/11 08:39:11;;;;;;;10.95;1.85;;;5.10;53.10;;;;;;4963574;28;20033;-59
2023/03/11 08:41:39;;;;;;;8.20;2.13;;;5.10;53.00;;;;;;4946275;28;20062;-58
2023/03/11 08:44:07;;;;;;;9.77;2.53;;;5.10;52.90;;;;;;4948848;28;20055;-59
2023/03/11 08:46:36;;;;;;;12.07;2.33;;;5.10;53.00;;;;;;4948959;28;20051;-58
2023/03/11 08:49:04;;;;;;;7.40;2.03;;;5.10;53.00;;;;;;4947568;28;20066;-59
2023/03/11 08:51:33;;;;;;;13.50;2.40;;;5.10;53.10;;;;;;4947830;28;20054;-58
2023/03/11 08:54:01;;;;;;;9.40;1.83;;;5.10;53.00;;;;;;4947170;28;20058;-57
2023/03/11 08:56:29;;;;;;;11.35;2.22;;;5.20;53.10;;;;;;4945796;28;20073;-59
2023/03/11 08:58:58;;;;;;;11.18;2.60;;;5.30;53.10;;;;;;4947386;28;20498;-58
2023/03/11 09:01:25;;;;;;;10.75;2.00;;;5.30;53.10;;;;;;4947962;28;20063;-59
2023/03/11 09:03:52;;;;;;;8.75;1.77;;;5.30;53.20;;;;;;4946676;28;20076;-57
2023/03/11 09:06:20;;;;;;;10.30;1.60;;;5.40;53.20;;;;;;4946574;28;20066;-58
2023/03/11 09:08:48;;;;;;;17.42;2.08;;;5.40;53.20;;;;;;4946644;28;20055;-59
2023/03/11 09:11:16;;;;;;;15.65;1.92;;;5.50;53.00;;;;;;4944886;28;20054;-59
2023/03/11 09:13:44;;;;;;;6.82;1.90;;;5.50;52.50;;;;;;4945483;28;20059;-58
2023/03/11 09:16:15;;;;;;;13.82;2.00;;;5.50;51.70;;;;;;4947111;28;20065;-58
2023/03/11 09:18:42;;;;;;;5.03;1.70;;;5.60;50.40;;;;;;4947597;28;20503;-58
2023/03/11 09:21:10;;;;;;;7.70;1.38;;;5.50;50.40;;;;;;4944815;28;20051;-56
2023/03/11 09:23:37;;;;;;;6.13;1.65;;;5.50;49.60;;;;;;4948360;28;20066;-59
2023/03/11 09:26:05;;;;;;;6.43;1.10;;;5.50;48.80;;;;;;4947121;28;20059;-59
2023/03/11 09:28:34;;;;;;;2.97;1.13;;;5.60;49.40;;;;;;4949915;28;20055;-58
2023/03/11 09:31:01;;;;;;;8.50;1.25;;;5.60;49.30;;;;;;4947292;28;20487;-58
2023/03/11 09:33:29;;;;;;;8.02;1.20;;;5.60;49.00;;;;;;4945830;28;20066;-58
2023/03/11 09:35:58;;;;;;;4.82;1.00;;;5.60;47.80;;;;;;4945213;28;20063;-59
2023/03/11 09:38:26;;;;;;;5.05;0.70;;;5.60;46.80;;;;;;4947575;28;20062;-58
2023/03/11 09:40:59;;;;;;;6.32;1.08;;;5.70;47.20;;;;;;4945533;28;20510;-56
2023/03/11 09:43:37;;;;;;;3.85;1.20;;;5.60;44.60;;;;;;4947428;28;20059;-57
2023/03/11 09:46:23;;;;;;;3.67;1.17;;;5.70;45.00;;;;;;4948035;28;20082;-59
2023/03/11 09:48:59;;;;;;;3.83;0.68;;;5.70;45.70;;;;;;4946492;28;20059;-58
2023/03/11 09:51:31;;;;;;;8.55;0.95;;;5.70;45.60;;;;;;4947843;28;20481;-59
2023/03/11 09:54:04;;;;;;;5.22;0.80;;;5.70;45.10;;;;;;4947998;28;20491;-58
2023/03/11 09:56:34;;;;;;;5.63;1.07;;;5.80;45.90;;;;;;4945738;28;20055;-59
2023/03/11 09:59:05;;;;;;;4.20;0.60;;;5.80;45.50;;;;;;4947377;28;20447;-58
2023/03/11 10:01:36;;;;;;;3.15;0.70;;;5.90;46.40;;;;;;4945621;28;20431;-58
2023/03/11 10:04:11;;;;;;;4.40;1.15;;;5.90;47.00;;;;;;4947705;28;20059;-58
2023/03/11 10:06:41;;;;;;;10.43;1.00;;;6.00;47.30;;;;;;4947226;28;20061;-58
2023/03/11 10:09:27;;;;;;;4.10;0.77;;;6.10;46.20;;;;;;4948466;28;20258;-59
2023/03/11 10:12:05;;;;;;;8.32;1.08;;;6.20;46.80;;;;;;4943555;28;20428;-57
2023/03/11 10:14:47;;;;;;;3.08;0.60;;;6.30;46.90;;;;;;4946498;28;20050;-59
2023/03/11 10:17:28;;;;;;;5.95;1.30;;;6.40;47.20;;;;;;4945431;28;20491;-59
2023/03/11 10:20:04;;;;;;;7.47;1.40;;;6.50;46.40;;;;;;4946414;28;20078;-57
2023/03/11 10:22:39;;;;;;;5.05;1.13;;;6.50;45.60;;;;;;4946674;28;20051;-59
2023/03/11 10:25:11;;;;;;;7.07;1.23;;;6.60;45.80;;;;;;4946328;28;20055;-59
2023/03/11 10:27:44;;;;;;;7.55;1.08;;;6.60;45.80;;;;;;4946702;28;20047;-59
2023/03/11 10:30:21;;;;;;;2.00;0.77;;;6.60;45.00;;;;;;4946491;28;20415;-58
2023/03/11 10:32:54;;;;;;;5.53;0.90;;;6.60;44.50;;;;;;4944555;28;20051;-58
2023/03/11 10:35:28;;;;;;;12.53;1.73;;;6.60;44.30;;;;;;4945661;28;20055;-60
2023/03/11 10:38:00;;;;;;;7.73;1.13;;;6.50;43.60;;;;;;4944917;28;20063;-59
2023/03/11 10:40:31;;;;;;;6.43;1.38;;;6.50;43.30;;;;;;4945217;28;20506;-59
2023/03/11 10:43:03;;;;;;;3.75;0.80;;;6.50;43.20;;;;;;4946182;28;20063;-59
2023/03/11 10:45:37;;;;;;;4.65;0.73;;;6.40;43.80;;;;;;4945682;28;20055;-59
2023/03/11 10:48:09;;;;;;;3.53;1.05;;;6.40;44.70;;;;;;4946077;28;20055;-59
2023/03/11 10:50:45;;;;;;;5.47;1.30;;;6.50;45.40;;;;;;4946430;28;20054;-59
2023/03/11 10:53:16;;;;;;;6.25;0.80;;;6.50;45.80;;;;;;4945266;28;20055;-57
2023/03/11 10:55:46;;;;;;;9.30;1.58;;;6.50;44.60;;;;;;4943898;28;20763;-58
2023/03/11 10:58:22;;;;;;;4.68;1.17;;;6.60;45.00;;;;;;4945160;28;20621;-59
2023/03/11 11:01:01;;;;;;;5.05;1.65;;;6.70;45.50;;;;;;4946095;28;20055;-59
2023/03/11 11:03:29;;;;;;;5.40;1.00;;;6.80;45.50;;;;;;4946406;28;20403;-58
2023/03/11 11:06:03;;;;;;;7.25;1.40;;;6.80;45.70;;;;;;4945082;28;20051;-58
2023/03/11 11:08:31;;;;;;;5.30;1.00;;;6.90;45.50;;;;;;4945932;28;20055;-60
2023/03/11 11:11:00;;;;;;;5.13;1.20;;;6.90;45.50;;;;;;4943221;28;20357;-58
2023/03/11 11:13:30;;;;;;;5.13;1.23;;;7.00;45.00;;;;;;4945516;28;20058;-60
2023/03/11 11:16:00;;;;;;;5.55;1.20;;;7.00;44.60;;;;;;4946182;28;20058;-59
2023/03/11 11:18:31;;;;;;;8.30;0.95;;;7.10;43.90;;;;;;4945189;28;20063;-59
2023/03/11 11:21:06;;;;;;;4.45;1.00;;;7.10;43.70;;;;;;4945195;28;20070;-59
2023/03/11 11:23:38;;;;;;;4.90;1.08;;;7.10;43.10;;;;;;4946572;28;20051;-59
2023/03/11 11:26:14;;;;;;;2.42;0.85;;;7.10;43.00;;;;;;4945853;28;20058;-59
2023/03/11 11:28:41;;;;;;;6.97;1.10;;;7.10;42.40;;;;;;4946062;28;20055;-57
2023/03/11 11:31:22;;;;;;;5.25;1.00;;;7.10;42.50;;;;;;4945960;28;20055;-58
2023/03/11 11:33:51;;;;;;;7.35;1.08;;;7.10;43.00;;;;;;4945497;28;20070;-58
2023/03/11 11:36:23;;;;;;;3.45;1.13;;;7.10;42.80;;;;;;4945093;28;20047;-58
2023/03/11 11:38:52;;;;;;;10.82;1.33;;;7.10;43.10;;;;;;4945345;28;20065;-58
2023/03/11 11:41:22;;;;;;;5.28;1.08;;;7.20;42.80;;;;;;4942977;28;20058;-59
2023/03/11 11:43:52;;;;;;;7.97;1.05;;;7.20;42.70;;;;;;4946423;28;20059;-59
2023/03/11 11:46:25;;;;;;;8.98;1.80;;;7.20;43.00;;;;;;4945322;28;20074;-58
2023/03/11 11:49:05;;;;;;;10.20;1.42;;;7.20;43.00;;;;;;4946702;28;20058;-59
2023/03/11 11:51:39;;;;;;;14.45;1.77;;;7.30;43.60;;;;;;4946030;28;20058;-59
2023/03/11 11:54:16;;;;;;;4.28;1.15;;;7.30;43.80;;;;;;4945317;28;20062;-58
2023/03/11 11:56:43;;;;;;;5.32;1.30;;;7.40;43.50;;;;;;4943860;28;20408;-59
2023/03/11 11:59:16;;;;;;;3.45;1.02;;;7.40;43.50;;;;;;4941344;28;20051;-60
2023/03/11 12:01:59;;;;;;;7.43;1.40;;;7.50;43.50;;;;;;4943947;28;20055;-59
2023/03/11 12:04:51;;;;;;;7.07;1.20;;;7.50;43.60;;;;;;4945359;28;20062;-59
2023/03/11 12:07:31;;;;;;;8.48;1.42;;;7.60;43.50;;;;;;4944094;28;20062;-60
2023/03/11 12:10:10;;;;;;;4.88;1.33;;;7.70;43.90;;;;;;4941370;28;20059;-60
2023/03/11 12:12:45;;;;;;;5.35;1.10;;;7.70;43.90;;;;;;4943149;28;20051;-58
2023/03/11 12:15:19;;;;;;;4.05;1.10;;;7.70;43.80;;;;;;4944834;28;20058;-59
2023/03/11 12:17:50;;;;;;;8.30;1.40;;;7.80;43.60;;;;;;4945718;28;20058;-58
2023/03/11 12:20:26;;;;;;;6.97;1.10;;;7.90;43.20;;;;;;4944493;28;20064;-60
2023/03/11 12:23:15;;;;;;;7.65;1.23;;;7.90;43.20;;;;;;4942505;28;20058;-60
2023/03/11 12:25:56;;;;;;;5.90;0.93;;;8.00;43.60;;;;;;4943553;28;20059;-57
2023/03/11 12:28:33;;;;;;;5.90;1.20;;;8.00;43.40;;;;;;4942928;28;20059;-59
2023/03/11 12:31:03;;;;;;;7.53;1.55;;;8.00;43.20;;;;;;4943958;28;20059;-60
2023/03/11 12:33:35;;;;;;;8.45;1.10;;;8.10;43.50;;;;;;4944958;28;20448;-59
2023/03/11 12:36:04;;;;;;;4.65;1.30;;;8.10;43.60;;;;;;4944927;28;20063;-57
2023/03/11 12:38:36;;;;;;;9.77;1.40;;;8.10;44.00;;;;;;4943281;28;20055;-59
2023/03/11 12:41:06;;;;;;;2.20;1.00;;;8.20;43.90;;;;;;4944561;28;20404;-59
2023/03/11 12:44:23;;;;;;;8.95;1.30;;;8.20;43.80;;;;;;4944941;28;20055;-59
2023/03/11 12:47:29;;;;;;;8.90;1.23;;;8.30;42.80;;;;;;4943607;28;20427;-58
2023/03/11 12:50:47;;;;;;;14.50;1.38;;;8.30;42.30;;;;;;4944218;28;20514;-59
2023/03/11 12:53:17;;;;;;;7.53;1.30;;;8.30;42.40;;;;;;4881390;29;20064;-59
2023/03/11 12:56:05;;;;;;;10.45;1.27;;;8.30;42.10;;;;;;4927730;28;20055;-57
2023/03/11 12:58:53;;;;;;;6.32;1.20;;;8.30;42.20;;;;;;4944430;28;20059;-59
2023/03/11 13:01:47;;;;;;;7.72;1.60;;;8.20;42.00;;;;;;4944916;28;20070;-59
2023/03/11 13:04:30;;;;;;;5.32;1.20;;;8.20;42.60;;;;;;4942715;28;20059;-60
2023/03/11 13:07:43;;;;;;;6.55;1.40;;;8.20;42.70;;;;;;4943207;28;20070;-59
2023/03/11 13:10:19;;;;;;;5.70;1.30;;;8.20;42.40;;;;;;4942984;28;20522;-59
2023/03/11 13:12:49;;;;;;;3.95;0.80;;;8.20;42.90;;;;;;4946186;28;20070;-59
2023/03/11 13:15:28;;;;;;;7.15;1.33;;;8.30;43.10;;;;;;4947747;28;20055;-57